Time;durP1;ratioP1;P1;durP2;ratioP2;P2;SDS_P1;SDS_P2;PMS_P1;PMS_P2;Temp;Humidity;BMP_temperature;BMP_pressure;BME280_temperature;BME280_humidity;BME280_pressure;Samples;Min_cycle;Max_cycle;Signal;HPM_P1;HPM_P2
2021/06/21 00:02:58;;;;;;;9.88;8.83;;;;;;;24.49;53.88;98427.28;2222154;80;20948;-79
2021/06/21 00:05:59;;;;;;;37.38;13.25;;;;;;;24.51;53.92;98422.73;2221784;80;20991;-79
2021/06/21 00:08:59;;;;;;;11.05;9.58;;;;;;;24.41;53.96;98415.66;2221825;80;20956;-79
2021/06/21 00:12:00;;;;;;;10.63;9.60;;;;;;;24.41;54.17;98416.13;2222123;80;20983;-79
2021/06/21 00:15:01;;;;;;;14.43;9.85;;;;;;;24.48;54.13;98412.21;2222013;80;20963;-79
2021/06/21 00:18:03;;;;;;;11.45;9.13;;;;;;;24.56;53.92;98407.34;2221858;80;20975;-77
2021/06/21 00:21:04;;;;;;;14.05;9.40;;;;;;;24.61;53.79;98395.96;2221276;80;20962;-78
2021/06/21 00:24:05;;;;;;;10.43;9.43;;;;;;;24.61;53.60;98393.30;2217581;80;21083;-79
2021/06/21 00:27:06;;;;;;;12.30;9.78;;;;;;;24.55;53.76;98392.75;2211991;81;20948;-78
2021/06/21 00:30:07;;;;;;;14.58;10.40;;;;;;;24.55;53.89;98391.41;2211662;81;20952;-79
2021/06/21 00:33:07;;;;;;;14.78;9.63;;;;;;;24.55;53.85;98388.27;2211781;81;20933;-78
2021/06/21 00:36:08;;;;;;;13.35;10.32;;;;;;;24.56;53.91;98392.67;2211609;81;20964;-79
2021/06/21 00:39:09;;;;;;;11.78;10.68;;;;;;;24.53;53.89;98386.16;2211794;81;20960;-79
2021/06/21 00:42:10;;;;;;;14.18;9.80;;;;;;;24.52;53.95;98392.91;2211273;81;21016;-79
2021/06/21 00:45:11;;;;;;;11.43;10.25;;;;;;;24.45;54.01;98390.55;2211788;81;20928;-78
2021/06/21 00:48:12;;;;;;;11.43;9.85;;;;;;;24.28;53.80;98377.22;2211671;81;21035;-79
2021/06/21 00:51:13;;;;;;;11.28;9.53;;;;;;;24.23;54.48;98367.66;2211603;81;20909;-79
2021/06/21 00:54:14;;;;;;;10.98;9.85;;;;;;;24.33;54.42;98359.65;2211323;81;21087;-78
2021/06/21 00:57:15;;;;;;;11.93;10.15;;;;;;;24.36;54.13;98349.69;2211590;81;20936;-78
2021/06/21 01:00:16;;;;;;;11.83;10.00;;;;;;;24.35;54.01;98343.09;2211598;81;20957;-79
2021/06/21 01:03:17;;;;;;;24.55;10.98;;;;;;;24.23;53.88;98348.52;2211322;81;21030;-80
2021/06/21 01:06:18;;;;;;;11.18;10.08;;;;;;;24.12;54.20;98343.73;2211163;81;20938;-79
2021/06/21 01:09:19;;;;;;;13.40;9.68;;;;;;;23.98;54.79;98342.71;2210866;81;20972;-78
2021/06/21 01:12:20;;;;;;;11.05;10.00;;;;;;;24.06;54.91;98342.72;2210882;81;21463;-79
2021/06/21 01:15:21;;;;;;;12.98;11.63;;;;;;;24.11;54.68;98343.34;2211265;81;20949;-78
2021/06/21 01:18:22;;;;;;;13.53;11.45;;;;;;;24.06;54.83;98338.72;2210847;81;21358;-78
2021/06/21 01:21:23;;;;;;;13.50;10.60;;;;;;;23.92;54.90;98331.88;2210973;81;20957;-78
2021/06/21 01:24:24;;;;;;;11.12;10.05;;;;;;;23.86;55.47;98331.33;2214717;80;21083;-78
2021/06/21 01:27:25;;;;;;;17.50;10.58;;;;;;;23.92;55.29;98317.23;2221289;80;20928;-81
2021/06/21 01:30:26;;;;;;;12.82;11.35;;;;;;;23.86;55.52;98316.20;2221592;80;21039;-79
2021/06/21 01:33:27;;;;;;;11.50;10.50;;;;;;;23.76;55.68;98322.46;2221301;80;20959;-78
2021/06/21 01:36:28;;;;;;;13.08;10.82;;;;;;;23.80;55.87;98317.84;2221200;80;20963;-78
2021/06/21 01:39:29;;;;;;;12.33;11.08;;;;;;;23.88;55.80;98324.98;2221236;80;20955;-80
2021/06/21 01:42:30;;;;;;;12.55;11.35;;;;;;;23.97;55.63;98322.33;2221059;80;20947;-78
2021/06/21 01:45:31;;;;;;;11.48;10.38;;;;;;;23.91;55.55;98319.50;2221930;80;21015;-78
2021/06/21 01:48:32;;;;;;;22.75;11.50;;;;;;;23.79;55.66;98316.98;2221115;80;20947;-79
2021/06/21 01:51:33;;;;;;;14.18;10.90;;;;;;;23.71;55.87;98315.63;2221297;80;20932;-78
2021/06/21 01:54:34;;;;;;;17.40;11.18;;;;;;;23.61;55.95;98325.02;2221043;80;21388;-78
2021/06/21 01:57:35;;;;;;;25.02;12.18;;;;;;;23.49;56.13;98319.31;2221602;80;21608;-80
2021/06/21 02:00:36;;;;;;;33.28;13.60;;;;;;;23.28;56.68;98321.66;2221854;80;21015;-78
2021/06/21 02:03:37;;;;;;;26.42;13.18;;;;;;;23.38;56.78;98311.42;2221716;80;20935;-78
2021/06/21 02:06:38;;;;;;;93.97;18.55;;;;;;;23.51;56.71;98313.92;2221635;80;20994;-80
2021/06/21 02:09:39;;;;;;;25.70;13.15;;;;;;;23.48;56.59;98308.27;2221308;80;20963;-78
2021/06/21 02:12:40;;;;;;;13.00;11.80;;;;;;;23.50;56.76;98305.53;2221052;80;20920;-78
2021/06/21 02:15:41;;;;;;;12.53;10.50;;;;;;;23.59;56.54;98306.92;2220892;80;21031;-78
2021/06/21 02:18:43;;;;;;;11.68;10.08;;;;;;;23.63;56.51;98304.02;2220932;80;20987;-78
2021/06/21 02:21:44;;;;;;;16.00;11.50;;;;;;;23.69;56.35;98308.19;2221073;80;20956;-78
2021/06/21 02:24:45;;;;;;;13.03;10.98;;;;;;;23.62;56.14;98308.96;2221020;80;20996;-78
2021/06/21 02:27:46;;;;;;;15.03;11.83;;;;;;;23.56;56.49;98299.94;2221265;80;20940;-78
2021/06/21 02:30:47;;;;;;;12.30;11.00;;;;;;;23.64;56.52;98303.09;2221332;80;20971;-78
2021/06/21 02:33:48;;;;;;;14.43;11.75;;;;;;;23.63;56.27;98299.16;2221472;80;20980;-77
2021/06/21 02:36:49;;;;;;;18.92;12.18;;;;;;;23.50;55.89;98302.88;2221243;80;20998;-79
2021/06/21 02:39:50;;;;;;;26.15;12.07;;;;;;;23.43;56.98;98300.97;2221713;80;20988;-78
2021/06/21 02:42:51;;;;;;;13.20;11.40;;;;;;;23.51;56.73;98296.13;2222037;80;21035;-80
2021/06/21 02:45:52;;;;;;;16.87;11.65;;;;;;;23.48;56.21;98290.95;2221683;80;20944;-78
2021/06/21 02:48:53;;;;;;;12.65;11.48;;;;;;;23.46;56.69;98292.84;2221582;80;20944;-79
2021/06/21 02:51:54;;;;;;;16.12;11.63;;;;;;;23.51;56.79;98293.94;2221793;80;20912;-79
2021/06/21 02:55:06;;;;;;;39.27;15.13;;;;;;;23.48;56.77;98297.62;2221459;80;21042;-79
2021/06/21 02:57:59;;;;;;;27.35;13.48;;;;;;;23.54;56.86;98287.13;2219520;80;20991;-79
2021/06/21 03:01:02;;;;;;;18.42;13.05;;;;;;;23.57;56.74;98299.47;2221457;80;20967;-78
2021/06/21 03:04:03;;;;;;;14.73;10.80;;;;;;;23.50;56.68;98312.19;2221696;80;20960;-79
2021/06/21 03:07:05;;;;;;;11.48;10.35;;;;;;;23.44;56.94;98308.49;2222075;80;20924;-79
2021/06/21 03:10:05;;;;;;;12.60;11.30;;;;;;;23.51;56.71;98307.26;2221791;80;20945;-79
2021/06/21 03:13:06;;;;;;;13.18;11.08;;;;;;;23.55;56.57;98307.53;2221968;80;20953;-79
2021/06/21 03:16:07;;;;;;;13.32;10.98;;;;;;;23.54;56.25;98300.92;2221478;80;20980;-79
2021/06/21 03:19:08;;;;;;;18.37;11.43;;;;;;;23.55;56.24;98305.34;2222340;80;21022;-79
2021/06/21 03:22:11;;;;;;;23.77;19.77;;;;;;;23.54;56.58;98311.58;2192914;80;20971;-79
2021/06/21 03:25:12;;;;;;;12.55;11.22;;;;;;;23.73;56.28;98305.30;2221894;80;21127;-79
2021/06/21 03:28:13;;;;;;;15.48;11.93;;;;;;;23.68;55.77;98303.80;2221858;80;21000;-80
2021/06/21 03:31:14;;;;;;;17.60;11.80;;;;;;;23.55;56.32;98308.00;2221825;80;21048;-81
2021/06/21 03:34:15;;;;;;;17.70;12.18;;;;;;;23.36;57.08;98303.97;2221956;80;20963;-79
2021/06/21 03:37:16;;;;;;;16.62;11.05;;;;;;;23.39;58.09;98302.50;2222628;80;21056;-78
2021/06/21 03:40:17;;;;;;;16.40;10.20;;;;;;;23.49;58.19;98292.69;2221555;80;20995;-80
2021/06/21 03:43:18;;;;;;;13.43;10.72;;;;;;;23.53;58.12;98289.87;2221483;80;20992;-79
2021/06/21 03:46:20;;;;;;;15.10;10.40;;;;;;;23.66;58.03;98294.55;2221131;80;21019;-78
2021/06/21 03:49:21;;;;;;;18.02;10.40;;;;;;;23.66;58.14;98294.55;2221502;80;20940;-78
2021/06/21 03:52:22;;;;;;;20.95;10.50;;;;;;;23.68;58.32;98298.00;2221031;80;20963;-78
2021/06/21 03:55:23;;;;;;;55.03;14.78;;;;;;;23.70;58.43;98296.59;2220825;80;21070;-78
2021/06/21 03:58:24;;;;;;;17.50;10.75;;;;;;;23.87;58.62;98295.27;2220807;80;21011;-79
2021/06/21 04:01:25;;;;;;;18.60;10.95;;;;;;;24.02;58.38;98298.49;2221058;80;21015;-79
2021/06/21 04:04:26;;;;;;;20.35;10.15;;;;;;;24.26;58.21;98299.50;2221263;80;21376;-79
2021/06/21 04:07:27;;;;;;;13.90;10.63;;;;;;;24.39;57.94;98290.84;2220916;80;20948;-80
2021/06/21 04:10:28;;;;;;;10.23;8.78;;;;;;;24.69;57.36;98289.67;2221234;80;21320;-79
2021/06/21 04:13:29;;;;;;;11.85;10.18;;;;;;;24.90;56.84;98289.45;2221772;80;20928;-80
2021/06/21 04:16:30;;;;;;;14.47;10.25;;;;;;;25.03;56.42;98290.53;2221816;80;20904;-79
2021/06/21 04:19:31;;;;;;;13.18;9.00;;;;;;;25.21;56.12;98300.22;2221486;80;21447;-79
2021/06/21 04:22:32;;;;;;;18.15;8.63;;;;;;;25.40;55.76;98288.88;2221728;80;20933;-79
2021/06/21 04:25:33;;;;;;;10.23;9.00;;;;;;;25.64;55.38;98295.11;2215751;80;21387;-78
2021/06/21 04:28:34;;;;;;;12.28;8.98;;;;;;;25.75;54.95;98301.20;2210694;81;20972;-79
2021/06/21 04:31:35;;;;;;;14.35;9.43;;;;;;;25.85;54.80;98301.91;2211158;81;21496;-80
2021/06/21 04:34:36;;;;;;;10.30;8.25;;;;;;;25.96;54.59;98302.14;2210327;81;20937;-79
2021/06/21 04:37:37;;;;;;;13.68;8.68;;;;;;;26.01;54.61;98309.92;2210843;81;21411;-80
2021/06/21 04:40:38;;;;;;;11.88;7.50;;;;;;;25.97;54.62;98308.34;2211868;81;21722;-80
2021/06/21 04:43:40;;;;;;;14.33;8.85;;;;;;;25.93;54.61;98305.47;2211438;81;21360;-80
2021/06/21 04:46:41;;;;;;;14.13;8.90;;;;;;;25.95;54.97;98303.09;2211339;81;20998;-81
2021/06/21 04:49:42;;;;;;;13.72;7.97;;;;;;;26.24;54.63;98301.86;2211385;81;21329;-78
2021/06/21 04:52:45;;;;;;;14.30;8.38;;;;;;;26.35;54.22;98307.45;2210924;81;21360;-79
2021/06/21 04:55:46;;;;;;;21.87;9.13;;;;;;;26.49;53.78;98305.28;2211003;81;21388;-79
2021/06/21 04:58:47;;;;;;;13.30;7.58;;;;;;;26.51;54.07;98308.24;2211148;81;21459;-79
2021/06/21 05:01:49;;;;;;;39.00;10.55;;;;;;;26.59;54.07;98320.67;2211129;81;20988;-79
2021/06/21 05:04:50;;;;;;;11.25;7.53;;;;;;;26.72;53.55;98326.14;2211212;81;21028;-79
2021/06/21 05:07:51;;;;;;;15.75;8.40;;;;;;;26.60;54.04;98321.06;2211022;81;20996;-79
2021/06/21 05:10:52;;;;;;;14.43;8.38;;;;;;;26.75;54.12;98325.95;2211118;81;21014;-78
2021/06/21 05:13:53;;;;;;;14.90;8.13;;;;;;;26.89;53.75;98326.45;2211245;81;21018;-81
2021/06/21 05:16:55;;;;;;;17.57;7.80;;;;;;;27.07;53.16;98326.67;2211707;81;21032;-78
2021/06/21 05:19:56;;;;;;;18.10;7.22;;;;;;;27.14;52.59;98328.01;2211254;81;21015;-80
2021/06/21 05:22:58;;;;;;;13.72;7.37;;;;;;;27.10;51.91;98326.48;2210418;81;20948;-79
2021/06/21 05:26:00;;;;;;;36.65;9.00;;;;;;;27.03;52.42;98329.64;2210333;80;21142;-77
2021/06/21 05:29:01;;;;;;;22.20;7.55;;;;;;;27.08;52.36;98331.08;2210109;81;20976;-78
2021/06/21 05:32:02;;;;;;;20.20;8.05;;;;;;;27.19;52.25;98333.07;2210753;81;20968;-76
2021/06/21 05:35:03;;;;;;;28.05;8.35;;;;;;;27.11;52.72;98334.04;2210767;81;20972;-77
2021/06/21 05:38:04;;;;;;;22.73;7.65;;;;;;;27.29;52.96;98328.36;2210978;81;20968;-80
2021/06/21 05:41:05;;;;;;;25.90;8.40;;;;;;;27.53;51.81;98327.26;2211224;81;20956;-79
2021/06/21 05:44:07;;;;;;;15.53;7.17;;;;;;;27.73;51.39;98327.80;2211390;81;20983;-79
2021/06/21 05:47:08;;;;;;;135.07;105.20;;;;;;;27.87;50.45;98323.28;2211661;81;20968;-77
2021/06/21 05:50:09;;;;;;;69.12;41.77;;;;;;;27.81;49.25;98330.39;2210904;81;20980;-77
2021/06/21 05:53:10;;;;;;;26.25;16.57;;;;;;;27.84;48.68;98323.96;2210979;81;21348;-78
2021/06/21 05:56:14;;;;;;;26.25;15.05;;;;;;;27.85;48.40;98318.98;2211043;81;21078;-78
2021/06/21 05:59:14;;;;;;;20.20;11.10;;;;;;;27.98;47.95;98307.80;2211304;81;21092;-80
2021/06/21 06:02:16;;;;;;;22.48;6.92;;;;;;;27.97;47.50;98305.23;2210710;81;21019;-78
2021/06/21 06:05:17;;;;;;;19.35;7.42;;;;;;;27.97;47.17;98306.56;2210832;81;21059;-78
2021/06/21 06:08:20;;;;;;;14.25;6.33;;;;;;;27.99;47.25;98299.28;2210818;81;20933;-79
2021/06/21 06:11:21;;;;;;;15.03;6.20;;;;;;;27.91;46.63;98306.02;2211704;81;20972;-79
2021/06/21 06:14:22;;;;;;;14.58;5.58;;;;;;;27.85;45.88;98296.18;2211222;81;20957;-79
2021/06/21 06:17:23;;;;;;;18.77;5.30;;;;;;;27.60;45.63;98283.48;2211310;81;21003;-79
2021/06/21 06:20:24;;;;;;;17.77;5.45;;;;;;;27.75;46.05;98297.28;2211107;81;21396;-79
2021/06/21 06:23:25;;;;;;;13.55;5.15;;;;;;;27.87;45.64;98287.55;2210937;81;20972;-77
2021/06/21 06:26:27;;;;;;;10.82;5.03;;;;;;;27.96;45.31;98294.98;2217462;80;21498;-79
2021/06/21 06:29:29;;;;;;;21.93;5.35;;;;;;;28.16;44.75;98294.97;2221811;80;20968;-78
2021/06/21 06:32:34;;;;;;;20.40;4.92;;;;;;;28.13;44.35;98284.44;2221243;80;21008;-79
2021/06/21 06:35:36;;;;;;;13.08;4.40;;;;;;;27.91;44.11;98283.70;2190282;80;21053;-79
2021/06/21 06:38:37;;;;;;;12.95;4.60;;;;;;;27.92;44.25;98289.45;2221784;80;20951;-79
2021/06/21 06:41:38;;;;;;;126.35;108.45;;;;;;;28.10;43.65;98280.63;2221600;80;20960;-79
2021/06/21 06:44:39;;;;;;;101.50;83.95;;;;;;;28.11;43.38;98283.20;2221942;80;20968;-79
2021/06/21 06:47:41;;;;;;;46.25;34.25;;;;;;;28.15;42.81;98290.08;2221659;80;21034;-78
2021/06/21 06:50:42;;;;;;;37.15;19.27;;;;;;;28.30;42.44;98295.39;2221307;80;20947;-79
2021/06/21 06:53:50;;;;;;;14.15;7.83;;;;;;;28.59;42.97;98302.77;2221415;80;20966;-76
2021/06/21 06:57:01;;;;;;;16.07;6.45;;;;;;;28.72;42.18;98294.26;2221443;80;21378;-78
2021/06/21 07:00:02;;;;;;;17.27;5.50;;;;;;;28.75;42.46;98300.75;2221105;80;21075;-80
2021/06/21 07:03:04;;;;;;;11.83;4.65;;;;;;;28.80;41.68;98298.60;2221497;80;21015;-77
2021/06/21 07:06:05;;;;;;;18.57;4.20;;;;;;;28.93;41.83;98293.25;2221049;80;21007;-78
2021/06/21 07:09:07;;;;;;;12.43;4.47;;;;;;;29.01;40.61;98297.10;2221144;80;20919;-77
2021/06/21 07:12:07;;;;;;;13.45;4.97;;;;;;;28.86;40.47;98298.20;2221158;80;20925;-77
2021/06/21 07:15:10;;;;;;;20.15;4.30;;;;;;;29.09;40.36;98297.41;2221258;80;20932;-78
2021/06/21 07:18:11;;;;;;;23.40;4.75;;;;;;;29.13;40.33;98297.56;2221806;80;21412;-79
2021/06/21 07:21:12;;;;;;;22.62;4.47;;;;;;;29.20;40.44;98295.77;2222199;80;20948;-79
2021/06/21 07:24:13;;;;;;;14.70;4.80;;;;;;;29.24;40.62;98294.58;2221554;80;20975;-81
2021/06/21 07:27:14;;;;;;;18.15;4.45;;;;;;;29.37;40.36;98292.23;2221428;80;21051;-77
2021/06/21 07:30:15;;;;;;;10.82;4.20;;;;;;;29.48;40.58;98285.64;2220983;80;21019;-79
2021/06/21 07:33:16;;;;;;;13.03;4.33;;;;;;;29.68;40.54;98281.95;2221173;80;21023;-78
2021/06/21 07:36:17;;;;;;;16.73;4.35;;;;;;;29.93;40.31;98282.30;2221103;80;20971;-78
2021/06/21 07:39:18;;;;;;;13.88;4.35;;;;;;;30.07;40.23;98271.37;2221363;80;21411;-80
2021/06/21 07:42:19;;;;;;;14.43;4.30;;;;;;;29.96;39.95;98276.69;2221503;80;22144;-78
2021/06/21 07:45:20;;;;;;;14.60;4.37;;;;;;;30.10;40.02;98285.95;2221876;80;21016;-79
2021/06/21 07:48:21;;;;;;;18.07;4.10;;;;;;;30.16;39.12;98281.44;2222689;80;20936;-79
2021/06/21 07:51:23;;;;;;;18.73;3.75;;;;;;;30.03;38.64;98288.25;2222151;80;20986;-78
2021/06/21 07:54:24;;;;;;;16.62;4.08;;;;;;;30.01;38.27;98295.58;2221830;80;21427;-79
2021/06/21 07:57:27;;;;;;;14.68;4.35;;;;;;;29.80;37.67;98287.27;2221582;80;21091;-80
2021/06/21 08:00:28;;;;;;;26.65;4.35;;;;;;;29.85;37.59;98288.27;2222008;80;21009;-78
2021/06/21 08:03:29;;;;;;;13.98;3.70;;;;;;;29.98;36.91;98292.23;2221896;80;21062;-79
2021/06/21 08:06:30;;;;;;;17.25;4.25;;;;;;;30.01;37.34;98296.03;2221784;80;21419;-80
2021/06/21 08:09:32;;;;;;;15.38;4.20;;;;;;;29.92;37.10;98293.55;2221497;80;20980;-77
2021/06/21 08:12:33;;;;;;;55.70;7.90;;;;;;;29.97;37.17;98297.24;2220341;80;20992;-80
2021/06/21 08:15:34;;;;;;;17.75;4.25;;;;;;;30.01;37.00;98279.89;2221361;80;20947;-79
2021/06/21 08:18:35;;;;;;;49.40;44.05;;;;;;;30.08;37.08;98286.55;2222097;80;20979;-80
2021/06/21 08:21:36;;;;;;;127.67;101.58;;;;;;;30.16;37.05;98292.20;2222573;80;21012;-79
2021/06/21 08:24:41;;;;;;;53.35;39.42;;;;;;;30.05;36.99;98288.13;2221916;80;21027;-77
2021/06/21 08:27:39;;;;;;;44.98;15.60;;;;;;;30.12;37.07;98293.41;2212129;80;21024;-78
2021/06/21 08:30:41;;;;;;;27.07;10.00;;;;;;;30.29;37.60;98289.43;2211570;81;21352;-78
2021/06/21 08:33:42;;;;;;;28.35;6.95;;;;;;;30.38;37.17;98290.95;2212026;81;20980;-80
2021/06/21 08:36:43;;;;;;;27.25;4.92;;;;;;;30.52;36.70;98289.88;2212221;81;21407;-79
2021/06/21 08:39:44;;;;;;;16.35;4.28;;;;;;;30.43;36.16;98290.11;2211913;81;20984;-80
2021/06/21 08:42:45;;;;;;;18.40;4.65;;;;;;;30.52;36.41;98286.33;2211367;81;20999;-78
2021/06/21 08:45:47;;;;;;;13.98;4.92;;;;;;;30.72;36.41;98274.38;2212134;81;20956;-79
2021/06/21 08:48:48;;;;;;;15.23;4.25;;;;;;;30.73;36.13;98277.93;2211402;81;20925;-79
2021/06/21 08:51:50;;;;;;;260.37;108.10;;;;;;;30.79;36.10;98284.18;2212122;81;20976;-78
2021/06/21 08:57:56;;;;;;;16.57;4.87;;;;;;;30.79;35.95;98280.14;2202197;81;20991;-79
2021/06/21 09:00:59;;;;;;;17.82;4.00;;;;;;;30.96;36.28;98282.83;2210465;81;21036;-79
2021/06/21 09:04:00;;;;;;;15.78;3.75;;;;;;;30.87;35.95;98282.22;2212102;81;20989;-79
2021/06/21 09:07:01;;;;;;;16.23;3.95;;;;;;;30.87;36.40;98284.92;2211459;80;21003;-79
2021/06/21 09:10:05;;;;;;;12.90;3.72;;;;;;;31.01;35.68;98283.32;2212161;81;21011;-79
2021/06/21 09:13:04;;;;;;;16.17;4.65;;;;;;;31.12;35.02;98263.59;2212033;80;21336;-80
2021/06/21 09:16:05;;;;;;;16.57;4.20;;;;;;;31.09;35.77;98280.01;2211988;81;20956;-78
2021/06/21 09:19:06;;;;;;;10.72;3.62;;;;;;;31.15;35.75;98272.80;2211791;81;21083;-79
2021/06/21 09:22:07;;;;;;;29.05;20.27;;;;;;;31.15;35.60;98278.20;2212454;81;21027;-79
2021/06/21 09:25:08;;;;;;;74.45;60.17;;;;;;;31.12;35.05;98273.02;2212266;81;20995;-78
2021/06/21 09:28:09;;;;;;;42.90;30.32;;;;;;;31.02;35.31;98268.86;2211560;80;21388;-79
2021/06/21 09:31:12;;;;;;;25.45;14.47;;;;;;;31.03;35.17;98276.83;2212322;81;21000;-79
2021/06/21 09:34:13;;;;;;;19.87;8.33;;;;;;;31.28;35.25;98274.90;2212213;81;20945;-80
2021/06/21 09:37:14;;;;;;;19.90;6.03;;;;;;;31.29;34.87;98269.88;2212356;81;21056;-79
2021/06/21 09:40:15;;;;;;;17.98;4.67;;;;;;;31.26;34.55;98270.13;2212099;81;21056;-79
2021/06/21 09:43:17;;;;;;;22.20;4.33;;;;;;;31.34;34.40;98262.27;2211530;81;21056;-79
2021/06/21 09:46:19;;;;;;;20.30;4.30;;;;;;;31.55;34.35;98260.98;2211632;81;20991;-79
2021/06/21 09:49:20;;;;;;;11.48;3.75;;;;;;;31.55;34.46;98274.47;2211475;81;21428;-79
2021/06/21 09:52:22;;;;;;;11.83;3.52;;;;;;;31.54;34.69;98273.61;2211571;81;20944;-79
2021/06/21 09:55:23;;;;;;;13.45;3.70;;;;;;;31.60;35.03;98267.71;2211762;81;20953;-79
2021/06/21 09:58:24;;;;;;;12.58;3.75;;;;;;;31.84;34.82;98264.83;2211656;81;20933;-79
2021/06/21 10:01:26;;;;;;;15.03;3.67;;;;;;;31.64;34.34;98262.42;2211926;81;20956;-80
2021/06/21 10:04:27;;;;;;;14.87;3.00;;;;;;;31.57;34.51;98271.16;2211951;81;21344;-78
2021/06/21 10:07:28;;;;;;;10.82;2.90;;;;;;;31.62;34.68;98280.58;2211544;81;21088;-79
2021/06/21 10:10:29;;;;;;;10.10;3.45;;;;;;;31.71;35.08;98263.29;2211881;81;20944;-80
2021/06/21 10:13:30;;;;;;;9.90;3.20;;;;;;;31.89;34.96;98270.70;2211814;81;20948;-79
2021/06/21 10:16:31;;;;;;;13.45;3.80;;;;;;;31.86;34.34;98270.10;2211878;81;21010;-79
2021/06/21 10:19:32;;;;;;;13.05;3.72;;;;;;;31.80;34.12;98257.98;2211244;81;21039;-78
2021/06/21 10:22:33;;;;;;;11.90;3.08;;;;;;;31.88;34.45;98253.28;2211711;81;20980;-78
2021/06/21 10:25:35;;;;;;;16.67;3.47;;;;;;;31.92;33.92;98256.09;2211812;80;20944;-78
2021/06/21 10:28:35;;;;;;;16.42;3.17;;;;;;;31.89;33.47;98250.95;2221875;80;20948;-79
2021/06/21 10:31:37;;;;;;;23.35;4.30;;;;;;;31.98;33.71;98252.88;2221589;80;21304;-78
2021/06/21 10:34:38;;;;;;;21.20;4.42;;;;;;;32.10;34.05;98242.41;2221797;80;21047;-78
2021/06/21 10:37:39;;;;;;;19.25;15.13;;;;;;;32.13;33.92;98239.45;2222054;80;21023;-78
2021/06/21 10:40:40;;;;;;;79.65;70.85;;;;;;;32.09;33.98;98236.64;2222002;80;21100;-78
2021/06/21 10:43:44;;;;;;;38.45;30.62;;;;;;;32.10;34.44;98240.20;2222245;80;21028;-78
2021/06/21 10:46:44;;;;;;;;;;;;;;;32.16;33.18;98239.19;2223574;80;21300;-78
2021/06/21 10:49:45;;;;;;;21.20;6.42;;;;;;;32.10;33.12;98229.41;2221675;80;20132;-78
2021/06/21 10:52:47;;;;;;;33.67;22.50;;;;;;;32.16;33.47;98233.78;2222094;80;21024;-79
2021/06/21 10:55:49;;;;;;;87.20;51.60;;;;;;;32.14;33.02;98227.66;2221667;80;20960;-82
2021/06/21 10:58:50;;;;;;;52.38;23.52;;;;;;;32.23;33.64;98220.11;2221895;80;20991;-78
2021/06/21 11:01:52;;;;;;;20.62;5.45;;;;;;;32.34;34.29;98221.91;2221191;80;21019;-78
2021/06/21 11:04:53;;;;;;;15.20;6.50;;;;;;;32.33;33.81;98216.16;2221699;80;20928;-79
2021/06/21 11:07:54;;;;;;;19.92;4.83;;;;;;;32.21;33.17;98205.03;2221732;80;21019;-79
2021/06/21 11:10:55;;;;;;;21.60;5.17;;;;;;;32.29;33.55;98214.22;2221593;80;21355;-77
2021/06/21 11:13:56;;;;;;;20.48;3.30;;;;;;;32.37;33.78;98218.95;2221818;80;21351;-80
2021/06/21 11:16:56;;;;;;;17.98;3.95;;;;;;;32.51;33.61;98215.04;2221926;80;20956;-80
2021/06/21 11:19:58;;;;;;;14.90;3.77;;;;;;;32.74;33.11;98215.22;2221918;80;21023;-79
2021/06/21 11:23:02;;;;;;;15.80;4.17;;;;;;;32.85;33.01;98216.50;2221803;80;20969;-78
2021/06/21 11:26:04;;;;;;;15.72;3.70;;;;;;;32.66;32.79;98212.34;2220552;80;21086;-79
2021/06/21 11:29:04;;;;;;;11.50;3.52;;;;;;;32.65;33.06;98212.47;2211843;81;21309;-79
2021/06/21 11:32:08;;;;;;;23.45;5.30;;;;;;;32.84;33.05;98203.13;2212059;81;21040;-78
2021/06/21 11:35:13;;;;;;;14.05;3.80;;;;;;;33.04;31.61;98195.46;2212051;81;20976;-79
2021/06/21 11:38:12;;;;;;;16.85;3.52;;;;;;;33.22;31.86;98193.79;2211701;80;21445;-79
2021/06/21 11:41:13;;;;;;;25.40;3.45;;;;;;;33.29;31.35;98189.17;2211239;81;20964;-81
2021/06/21 11:44:14;;;;;;;20.85;3.72;;;;;;;33.49;30.86;98190.94;2212186;81;20983;-79
2021/06/21 11:47:15;;;;;;;18.67;3.80;;;;;;;33.52;29.91;98199.63;2212238;81;21079;-79
2021/06/21 11:50:17;;;;;;;18.25;3.42;;;;;;;33.60;30.88;98189.94;2211780;81;20956;-80
2021/06/21 11:53:18;;;;;;;13.98;3.70;;;;;;;33.61;30.30;98168.16;2212296;81;20944;-79
2021/06/21 11:56:19;;;;;;;12.25;3.75;;;;;;;33.74;30.26;98180.89;2211910;81;20941;-79
2021/06/21 11:59:20;;;;;;;8.75;3.12;;;;;;;33.40;31.25;98177.77;2211486;81;20968;-78
2021/06/21 12:02:21;;;;;;;17.70;3.33;;;;;;;33.35;30.92;98167.86;2211448;81;20921;-79
2021/06/21 12:05:22;;;;;;;18.10;3.22;;;;;;;33.53;29.71;98158.05;2211156;81;21052;-78
2021/06/21 12:08:23;;;;;;;14.73;2.90;;;;;;;33.71;30.29;98153.27;2210716;81;20968;-78
2021/06/21 12:11:24;;;;;;;11.05;2.75;;;;;;;33.76;29.93;98159.09;2211524;81;20944;-79
2021/06/21 12:14:25;;;;;;;17.50;3.35;;;;;;;33.86;30.04;98153.23;2211735;81;21032;-79
2021/06/21 12:17:26;;;;;;;9.85;3.58;;;;;;;33.57;30.84;98143.73;2211281;81;20956;-75
2021/06/21 12:20:27;;;;;;;6.15;2.77;;;;;;;33.16;31.49;98152.44;2210685;81;21059;-75
2021/06/21 12:23:30;;;;;;;12.82;2.80;;;;;;;33.17;31.34;98158.20;2211987;81;21016;-79
2021/06/21 12:26:31;;;;;;;12.53;3.15;;;;;;;33.31;30.17;98146.15;2212347;80;21056;-79
2021/06/21 12:29:32;;;;;;;14.35;3.37;;;;;;;33.56;29.78;98150.99;2212939;81;21693;-79
2021/06/21 12:32:34;;;;;;;12.68;2.50;;;;;;;33.64;30.18;98146.72;2213066;81;20960;-79
2021/06/21 12:35:35;;;;;;;14.40;9.28;;;;;;;33.77;30.55;98152.19;2213229;81;21031;-79
2021/06/21 12:38:36;;;;;;;10.23;2.70;;;;;;;33.62;30.19;98150.06;2212327;81;21067;-81
2021/06/21 12:41:39;;;;;;;13.50;3.12;;;;;;;33.54;29.82;98137.25;2213183;81;20999;-80
2021/06/21 12:44:42;;;;;;;14.45;2.75;;;;;;;33.43;30.78;98134.20;2213072;81;21012;-79
2021/06/21 12:47:43;;;;;;;12.50;3.35;;;;;;;33.65;30.59;98131.69;2212860;81;21385;-80
2021/06/21 12:50:44;;;;;;;14.20;3.22;;;;;;;33.89;30.14;98134.00;2213153;81;21412;-80
2021/06/21 12:53:45;;;;;;;12.68;2.77;;;;;;;34.08;29.85;98127.19;2212655;81;21356;-81
2021/06/21 12:56:47;;;;;;;15.23;2.97;;;;;;;33.93;29.60;98128.65;2212304;81;21364;-80
2021/06/21 12:59:48;;;;;;;43.65;12.15;;;;;;;33.65;29.93;98137.60;2211538;81;20992;-81
2021/06/21 13:02:50;;;;;;;28.70;6.45;;;;;;;33.82;29.54;98132.88;2212129;81;21004;-80
2021/06/21 13:05:52;;;;;;;;;;;;;;;33.76;29.85;98138.30;2214333;81;21674;-83
2021/06/21 13:08:53;;;;;;;64.12;7.30;;;;;;;33.61;29.89;98127.56;2211982;80;20141;-82
2021/06/21 13:11:54;;;;;;;21.65;3.95;;;;;;;33.51;30.47;98128.06;2212622;81;21008;-81
2021/06/21 13:14:55;;;;;;;13.35;3.12;;;;;;;33.43;30.76;98122.02;2212083;81;21308;-82
2021/06/21 13:17:56;;;;;;;12.35;2.75;;;;;;;33.46;30.63;98126.29;2211875;81;21007;-80
2021/06/21 13:20:57;;;;;;;12.25;3.10;;;;;;;33.24;30.25;98120.63;2212020;81;21028;-82
2021/06/21 13:23:58;;;;;;;13.03;2.80;;;;;;;33.12;30.50;98119.91;2212082;81;21084;-80
2021/06/21 13:26:59;;;;;;;12.80;3.08;;;;;;;33.37;29.36;98123.94;2214849;80;21066;-82
2021/06/21 13:30:01;;;;;;;10.50;3.12;;;;;;;33.49;29.18;98122.80;2222735;80;20960;-81
2021/06/21 13:33:02;;;;;;;13.30;3.10;;;;;;;33.26;29.44;98115.94;2223020;80;21000;-82
2021/06/21 13:36:03;;;;;;;18.98;3.20;;;;;;;33.41;29.84;98115.90;2222649;80;21021;-81
2021/06/21 13:39:04;;;;;;;12.03;2.90;;;;;;;33.67;29.91;98109.89;2222800;80;21007;-81
2021/06/21 13:42:06;;;;;;;10.38;3.20;;;;;;;33.63;29.19;98108.48;2223074;80;20959;-81
2021/06/21 13:45:07;;;;;;;16.37;3.65;;;;;;;33.74;29.12;98101.05;2223198;80;21008;-81
2021/06/21 13:48:10;;;;;;;31.07;14.30;;;;;;;33.53;29.49;98103.93;2222997;80;20924;-80
2021/06/21 13:51:11;;;;;;;;;;;;;;;33.72;29.29;98092.23;2225075;80;20988;-81
2021/06/21 13:54:12;;;;;;;314.95;103.42;;;;;;;33.74;29.19;98102.41;2222810;80;20144;-80
2021/06/21 13:57:15;;;;;;;;;;;;;;;33.30;29.01;98089.00;2225815;80;21004;-82
2021/06/21 14:00:16;;;;;;;13.80;3.70;;;;;;;33.16;29.33;98090.24;2222923;80;20096;-81
2021/06/21 14:03:18;;;;;;;20.65;4.85;;;;;;;33.22;29.68;98083.41;2222388;80;20999;-81
2021/06/21 14:06:19;;;;;;;8.78;3.37;;;;;;;33.34;29.20;98082.30;2222506;80;20978;-81